Latest Weather Observations for Friendly Beaches

IDT60801

Issued at 7:05 pm EDT Monday 20 October 2014 (issued every 30 minutes, with the page automatically refreshed every 10 minutes)

About weather observations | Map of weather stations | Latest weather observations for TAS | Other Formats
Station Details ID: 092114 Name: FRIENDLY BEACHES Lat: -42.00 Lon: 148.28 Height: 55.0 m
Data from the previous 72 hours. | See also: Recent months at Friendly Beaches
Date/Time
EDT
Temp
°C
App
Temp
°C
Dew
Point
Rel
Hum
%
Delta-T
°C
Wind Press
QNH
hPa
Press
MSL
hPa
Rain
since 9 am
mm
Dir
 
Spd
km/h
Gust
km/h
Spd
kts
Gust
kts
20/07:00pm 10.5 6.8 2.4 57 3.4 ESE 11 15 6 8 1034.0 1034.0 0.0
20/06:30pm 11.7 8.4 2.7 54 3.9 ESE 9 13 5 7 1033.9 1033.9 0.0
20/06:00pm 12.6 9.0 2.7 51 4.3 ESE 11 15 6 8 1033.8 1033.8 0.0
20/05:30pm 13.6 9.7 3.4 50 4.6 ESE 13 19 7 10 1033.7 1033.7 0.0
20/05:00pm 14.3 10.0 3.5 48 4.9 ESE 15 20 8 11 1033.6 1033.6 0.0
20/04:30pm 14.7 10.6 4.1 49 4.9 ESE 15 20 8 11 1033.6 1033.6 0.0
20/04:00pm 14.9 10.2 3.1 45 5.3 ESE 17 24 9 13 1033.5 1033.5 0.0
20/03:30pm 15.1 10.0 3.3 45 5.4 ESE 19 24 10 13 1033.6 1033.6 0.0
20/03:00pm 15.4 10.9 4.2 47 5.2 ESE 17 22 9 12 1033.6 1033.6 0.0
20/02:30pm 15.1 10.9 3.6 46 5.3 ESE 15 20 8 11 1033.8 1033.8 0.0
20/02:00pm 15.0 11.1 3.2 45 5.3 ESE 13 19 7 10 1033.9 1033.9 0.0
20/01:30pm 14.9 11.3 3.1 45 5.3 E 11 17 6 9 1033.9 1033.9 0.0
20/01:00pm 14.7 10.6 4.1 49 4.8 ESE 15 22 8 12 1033.9 1033.9 0.0
20/12:30pm 14.4 9.8 3.8 49 4.8 SE 17 24 9 13 1033.9 1033.9 0.0
20/12:00pm 13.4 9.2 1.7 45 5.0 S 13 24 7 13 1034.0 1034.0 0.0
20/11:30am 11.9 7.5 2.9 54 3.9 SSW 15 22 8 12 1034.1 1034.1 0.0
20/11:00am 12.0 7.7 3.0 54 3.9 SSW 15 28 8 15 1034.2 1034.2 0.0
20/10:30am 12.4 8.4 2.8 52 4.2 SSW 13 22 7 12 1033.9 1033.9 0.0
20/10:00am 11.8 6.9 2.3 52 4.1 SSW 17 28 9 15 1033.6 1033.6 0.0
20/09:30am 11.3 7.1 1.5 51 4.1 SW 13 22 7 12 1033.1 1033.1 0.0
20/09:00am 10.6 6.0 1.4 53 3.8 SW 15 28 8 15 1032.8 1032.8 8.8
20/08:30am 9.1 4.9 1.5 59 3.1 WSW 13 20 7 11 1032.6 1032.6 8.8
20/08:00am 8.1 3.8 1.0 61 2.8 WSW 13 24 7 13 1032.4 1032.4 8.8
20/07:30am 6.5 3.0 1.2 69 2.1 W 9 13 5 7 1032.2 1032.2 8.8
20/07:00am 5.3 0.9 0.5 71 1.8 WSW 13 19 7 10 1032.0 1032.0 8.8
20/06:30am 4.6 0.2 0.4 74 1.6 WSW 13 20 7 11 1031.3 1031.3 8.8
20/06:00am 4.2 0.6 0.5 77 1.4 W 9 15 5 8 1030.7 1030.7 8.8
20/05:30am 4.6 0.6 0.2 73 1.7 WNW 11 15 6 8 1030.5 1030.5 8.8
20/05:00am 5.0 1.4 0.8 74 1.6 W 9 15 5 8 1030.2 1030.2 8.8
20/04:30am 5.7 1.8 1.2 73 1.8 WSW 11 17 6 9 1029.7 1029.7 8.8
20/04:00am 6.4 2.6 1.5 71 2.0 W 11 17 6 9 1029.2 1029.2 8.8
20/03:30am 6.1 2.6 1.4 72 1.9 WSW 9 17 5 9 1028.9 1028.9 8.8
20/03:00am 6.3 2.0 1.0 69 2.1 WSW 13 19 7 10 1028.6 1028.6 8.8
20/02:30am 6.4 2.5 0.9 68 2.2 WSW 11 19 6 10 1028.0 1028.0 8.8
20/02:00am 6.9 1.3 1.0 66 2.3 SW 20 39 11 21 1027.5 1027.5 8.8
20/01:30am 7.3 1.9 2.2 70 2.1 SW 20 32 11 17 1026.9 1026.9 8.8
20/01:00am 7.0 2.1 2.1 71 2.0 SW 17 35 9 19 1027.1 1027.1 8.8
20/12:30am 7.1 2.7 2.6 73 1.9 SW 15 28 8 15 1026.6 1026.6 8.8
20/12:00am 7.3 1.9 2.6 72 1.9 SW 20 30 11 16 1026.0 1026.0 8.8
 
Date/Time
EDT
Temp
°C
App
Temp
°C
Dew
Point
Rel
Hum
%
Delta-T
°C
Wind Press
QNH
hPa
Press
MSL
hPa
Rain
since 9 am
mm
Dir
 
Spd
km/h
Gust
km/h
Spd
kts
Gust
kts
19/11:30pm 7.2 2.0 2.5 72 2.0 WSW 19 30 10 16 1025.3 1025.3 8.8
19/11:00pm 7.1 0.7 3.0 75 1.7 SW 26 43 14 23 1024.5 1024.5 8.8
19/10:31pm 7.4 0.9 4.7 83 1.2 SSW 28 52 15 28 1024.0 1024.0 8.8
19/10:30pm 7.5 1.5 5.1 85 1.1 SSW 26 52 14 28 1024.1 1024.1 8.8
19/10:00pm 8.0 3.7 6.8 92 0.6 SSW 19 41 10 22 1023.5 1023.5 8.6
19/09:30pm 8.3 4.0 7.2 93 0.5 S 19 30 10 16 1022.9 1022.9 8.4
19/09:00pm 8.7 3.6 7.8 94 0.4 SSW 24 44 13 24 1022.1 1022.1 8.4
19/08:30pm 9.1 5.8 8.0 93 0.5 SW 15 24 8 13 1021.5 1021.5 7.0
19/08:00pm 9.2 5.0 8.1 93 0.5 SSW 20 32 11 17 1020.3 1020.3 6.4
19/07:30pm 9.7 7.8 8.9 95 0.4 WSW 9 13 5 7 1019.4 1019.5 5.6
19/07:00pm 9.6 5.7 8.5 93 0.5 WSW 19 32 10 17 1018.7 1018.7 4.6
19/06:30pm 10.2 6.3 9.3 94 0.4 S 20 37 11 20 1017.4 1017.4 2.6
19/06:00pm 10.9 8.4 9.7 92 0.6 S 13 30 7 16 1017.5 1017.5 1.2
19/05:30pm 11.5 6.1 9.4 87 1.1 SSE 28 43 15 23 1017.1 1017.1 0.0
19/05:00pm 11.9 6.5 9.5 85 1.2 SSE 28 41 15 22 1016.2 1016.2 0.0
19/04:30pm 12.7 7.1 10.2 85 1.3 SSE 30 41 16 22 1015.6 1015.6 0.0
19/04:00pm 14.3 10.8 10.9 80 1.8 SE 20 30 11 16 1015.5 1015.5 0.0
19/03:30pm 15.1 11.0 11.3 78 2.0 SE 24 33 13 18 1015.3 1015.3 0.0
19/03:00pm 16.0 12.3 11.6 75 2.4 SE 22 32 12 17 1015.4 1015.4 0.0
19/02:30pm 17.5 13.7 11.3 67 3.4 SE 22 32 12 17 1014.7 1014.7 0.0
19/02:00pm 18.6 16.9 9.9 57 4.6 E 9 11 5 6 1014.2 1014.2 0.0
19/01:30pm 18.6 17.1 9.1 54 5.0 ENE 7 13 4 7 1013.7 1013.7 0.0
19/01:00pm 20.7 18.6 9.6 49 5.9 ENE 11 19 6 10 1013.5 1013.5 0.0
19/12:30pm 23.2 21.7 10.6 45 7.0 NNE 9 13 5 7 1013.7 1013.7 0.0
19/12:00pm 21.4 19.6 9.6 47 6.3 NE 9 15 5 8 1014.0 1014.0 0.0
19/11:30am 23.9 21.4 8.3 37 8.3 SW 11 20 6 11 1014.2 1014.2 0.0
19/11:00am 23.8 22.0 9.4 40 7.8 SW 9 15 5 8 1014.5 1014.5 0.0
19/10:30am 22.1 20.2 8.9 43 7.0 WSW 9 15 5 8 1014.5 1014.5 0.0
19/10:00am 20.1 18.7 9.4 50 5.7 WNW 7 13 4 7 1014.4 1014.4 0.0
19/09:30am 18.0 16.6 8.8 55 4.8 WNW 6 9 3 5 1014.8 1014.8 0.0
19/09:00am 16.9 15.1 8.1 56 4.5 W 7 13 4 7 1014.9 1014.9 0.0
19/08:30am 15.8 14.0 7.8 59 4.0 WNW 7 13 4 7 1015.3 1015.3 0.0
19/08:00am 15.0 12.4 7.8 62 3.6 NW 11 15 6 8 1015.1 1015.1 0.0
19/07:30am 14.8 11.3 7.4 61 3.7 N 15 20 8 11 1014.4 1014.4 0.0
19/07:00am 14.9 11.4 7.2 60 3.8 N 15 24 8 13 1014.3 1014.3 0.0
19/06:30am 15.6 11.6 6.6 55 4.4 N 17 28 9 15 1014.3 1014.3 0.0
19/06:00am 16.0 11.4 6.4 53 4.7 N 20 37 11 20 1013.7 1013.7 0.0
19/05:30am 16.5 10.7 6.3 51 5.0 N 26 39 14 21 1013.9 1013.9 0.0
19/05:00am 17.3 12.6 5.9 47 5.6 N 20 32 11 17 1014.7 1014.7 0.0
19/04:30am 18.2 13.1 5.8 44 6.1 NNW 22 41 12 22 1015.0 1015.0 0.0
19/04:00am 17.9 13.7 5.8 45 5.9 NNW 17 30 9 16 1015.2 1015.2 0.0
19/03:30am 17.2 14.5 5.8 47 5.6 NW 9 20 5 11 1015.0 1015.0 0.0
19/03:00am 16.8 13.0 6.0 49 5.3 N 15 24 8 13 1015.3 1015.3 0.0
19/02:30am 16.5 13.0 5.5 48 5.3 NNW 13 24 7 13 1015.8 1015.8 0.0
19/02:00am 15.3 10.7 5.5 52 4.7 N 19 33 10 18 1016.0 1016.0 0.0
19/01:30am 13.7 9.0 7.9 68 2.9 N 22 30 12 16 1016.6 1016.6 0.0
19/01:00am 14.0 9.2 7.5 65 3.2 N 22 35 12 19 1016.8 1016.8 0.0
19/12:30am 14.2 8.9 6.6 60 3.7 N 24 39 13 21 1016.7 1016.7 0.0
19/12:00am 13.3 9.6 6.4 63 3.3 NNE 15 26 8 14 1017.2 1017.2 0.0
 
Date/Time
EDT
Temp
°C
App
Temp
°C
Dew
Point
Rel
Hum
%
Delta-T
°C
Wind Press
QNH
hPa
Press
MSL
hPa
Rain
since 9 am
mm
Dir
 
Spd
km/h
Gust
km/h
Spd
kts
Gust
kts
18/11:30pm 13.7 11.3 7.2 65 3.2 NNE 9 17 5 9 1018.1 1018.1 0.0
18/11:00pm 13.6 10.9 7.2 65 3.1 NNE 11 17 6 9 1018.4 1018.4 0.0
18/10:30pm 13.9 12.3 6.5 61 3.6 N 4 7 2 4 1019.4 1019.5 0.0
18/10:00pm 14.2 11.7 6.6 60 3.7 NNE 9 15 5 8 1019.7 1019.8 0.0
18/09:30pm 14.3 10.2 6.4 59 3.8 N 17 30 9 16 1019.8 1019.9 0.0
18/09:00pm 14.7 10.2 6.0 56 4.2 N 19 32 10 17 1020.2 1020.2 0.0
18/08:30pm 15.0 12.0 6.0 55 4.3 NNW 11 19 6 10 1020.6 1020.6 0.0
18/08:00pm 15.5 11.2 5.1 50 4.9 N 17 26 9 14 1019.7 1019.8 0.0
18/07:30pm 16.2 12.4 3.9 44 5.7 NNW 13 24 7 13 1020.7 1020.7 0.0
18/07:00pm 17.1 12.4 3.1 39 6.4 NW 17 32 9 17 1020.9 1020.9 0.0
18/06:30pm 17.8 14.9 4.7 42 6.3 WNW 9 15 5 8 1020.8 1020.8 0.0
18/06:00pm 18.5 16.0 5.0 41 6.5 W 7 15 4 8 1020.5 1020.5 0.0
18/05:30pm 20.1 17.2 4.6 36 7.5 W 9 17 5 9 1020.3 1020.3 0.0
18/05:00pm 19.6 17.3 8.9 50 5.6 N 11 20 6 11 1020.1 1020.1 0.0
18/04:30pm 21.1 18.3 8.7 45 6.6 NNE 13 26 7 14 1020.2 1020.2 0.0
18/04:00pm 19.3 15.5 8.9 51 5.4 NNE 19 26 10 14 1020.3 1020.3 0.0
18/03:30pm 19.2 14.7 8.5 50 5.6 N 22 33 12 18 1020.5 1020.5 0.0
18/03:00pm 18.1 12.6 7.5 50 5.4 NNE 26 43 14 23 1020.8 1020.8 0.0
18/02:30pm 19.4 14.6 8.7 50 5.6 N 24 43 13 23 1021.1 1021.1 0.0
18/02:00pm 18.5 12.6 7.6 49 5.5 NNE 28 43 15 23 1021.6 1021.6 0.0
18/01:30pm 18.9 13.4 7.7 48 5.7 NNE 26 41 14 22 1022.1 1022.1 0.0
18/01:00pm 18.9 12.5 8.6 51 5.3 NNE 32 43 17 23 1022.8 1022.8 0.0
18/12:30pm 18.9 12.5 8.6 51 5.4 NNE 32 44 17 24 1023.1 1023.1 0.0
18/12:00pm 18.4 12.4 8.7 53 5.0 NNE 30 46 16 25 1023.7 1023.7 0.0
18/11:30am 18.4 12.6 7.8 50 5.4 NNE 28 46 15 25 1024.2 1024.2 0.0
18/11:27am 18.2 12.3 7.6 50 5.4 NNE 28 46 15 25 1024.2 1024.2 0.0
18/11:00am 18.1 12.5 7.2 49 5.5 NNE 26 41 14 22 1024.6 1024.6 0.0
18/10:30am 17.6 14.3 6.2 47 5.6 N 13 26 7 14 1025.1 1025.1 0.0
18/10:00am 16.9 14.3 6.1 49 5.2 N 9 19 5 10 1025.7 1025.7 0.0
18/09:30am 15.6 12.3 6.3 54 4.5 N 13 24 7 13 1026.1 1026.1 0.0
18/09:00am 13.8 9.8 4.7 54 4.2 N 15 24 8 13 1026.3 1026.3 0.0
18/08:30am 13.4 9.9 5.3 58 3.8 N 13 20 7 11 1026.5 1026.5 0.0
18/08:00am 12.1 9.3 5.0 62 3.2 NNW 9 17 5 9 1026.8 1026.8 0.0
18/07:30am 11.4 8.6 5.3 66 2.8 NNW 9 15 5 8 1026.8 1026.8 0.0
18/07:00am 9.6 7.4 5.2 74 2.0 N 6 11 3 6 1026.3 1026.3 0.0
18/06:30am 7.6 5.0 4.2 79 1.5 NNE 7 9 4 5 1026.0 1026.0 0.0
18/06:00am 8.3 5.4 4.5 77 1.7 N 9 13 5 7 1026.0 1026.0 0.0
18/05:30am 7.4 4.8 4.0 79 1.5 N 7 9 4 5 1026.3 1026.3 0.0
18/05:00am 8.2 5.6 4.2 76 1.7 N 7 9 4 5 1026.5 1026.5 0.0
18/04:30am 8.1 5.7 4.1 76 1.7 NNW 6 9 3 5 1026.6 1026.6 0.0
18/04:00am 8.8 6.2 4.2 73 2.0 WNW 7 9 4 5 1026.8 1026.8 0.0
18/03:30am 10.2 6.9 4.6 68 2.5 NNW 11 17 6 9 1026.5 1026.5 0.0
18/03:00am 10.1 7.2 4.9 70 2.3 NNW 9 15 5 8 1026.7 1026.7 0.0
18/02:30am 10.4 7.5 4.8 68 2.5 N 9 13 5 7 1026.9 1026.9 0.0
18/02:00am 10.4 7.1 4.5 67 2.6 N 11 17 6 9 1026.9 1026.9 0.0
18/01:30am 10.6 7.4 4.9 68 2.6 N 11 19 6 10 1027.0 1027.0 0.0
18/01:00am 10.6 7.4 4.9 68 2.6 N 11 17 6 9 1027.3 1027.3 0.0
18/12:30am 10.4 7.9 4.8 68 2.5 N 7 11 4 6 1027.4 1027.4 0.0
18/12:00am 10.5 8.0 4.6 67 2.6 N 7 9 4 5 1027.6 1027.6 0.0
 
Date/Time
EDT
Temp
°C
App
Temp
°C
Dew
Point
Rel
Hum
%
Delta-T
°C
Wind Press
QNH
hPa
Press
MSL
hPa
Rain
since 9 am
mm
Dir
 
Spd
km/h
Gust
km/h
Spd
kts
Gust
kts
17/11:30pm 10.9 8.0 4.8 66 2.8 N 9 15 5 8 1027.9 1027.9 0.0
17/11:00pm 10.8 8.3 4.9 67 2.7 N 7 11 4 6 1028.2 1028.2 0.0
17/10:30pm 10.5 7.9 4.2 65 2.8 N 7 11 4 6 1028.2 1028.2 0.0
17/10:00pm 9.7 7.2 4.5 70 2.3 N 7 13 4 7 1028.0 1028.0 0.0
17/09:30pm 9.4 6.8 4.2 70 2.3 NNE 7 11 4 6 1028.1 1028.1 0.0
17/09:00pm 9.3 6.7 4.1 70 2.3 NNE 7 13 4 7 1028.3 1028.3 0.0
17/08:30pm 9.1 6.4 3.5 68 2.4 NNE 7 15 4 8 1028.0 1028.0 0.0
17/08:00pm 9.8 7.3 3.5 65 2.7 NNE 6 11 3 6 1028.0 1028.0 0.0
17/07:30pm 10.3 7.6 3.6 63 2.9 NE 7 15 4 8 1027.7 1027.7 0.0

Other Formats:

Comma delimited format used in spreadsheet applications
http://www.bom.gov.au/fwo/IDT60801/IDT60801.94987.axf

JavaScript Object Notation format (JSON) in row-major order
http://www.bom.gov.au/fwo/IDT60801/IDT60801.94987.json